Time;durP1;ratioP1;P1;durP2;ratioP2;P2;SDS_P1;SDS_P2;PMS_P1;PMS_P2;Temp;Humidity;BMP_temperature;BMP_pressure;BME280_temperature;BME280_humidity;BME280_pressure;Samples;Min_cycle;Max_cycle;Signal;HPM_P1;HPM_P2
2022/09/28 00:01:45;;;;;;;15.18;7.50;;;8.10;99.90;;;;;;4982991;28;20038;-65
2022/09/28 00:04:11;;;;;;;12.15;7.00;;;8.70;99.90;;;;;;4993347;28;20030;-66
2022/09/28 00:06:37;;;;;;;14.93;8.20;;;8.20;99.90;;;;;;4990732;28;20041;-65
2022/09/28 00:09:03;;;;;;;11.90;7.47;;;7.90;99.90;;;;;;4990558;28;20042;-65
2022/09/28 00:11:29;;;;;;;12.68;7.80;;;8.50;99.90;;;;;;4991412;28;20065;-65
2022/09/28 00:14:00;;;;;;;14.07;7.38;;;8.20;1.00;;;;;;4969335;28;20500;-65
2022/09/28 00:16:27;;;;;;;14.00;7.85;;;;;;;;;;4975834;28;20054;-65
2022/09/28 00:18:53;;;;;;;13.90;7.55;;;8.40;1.00;;;;;;4992872;28;20038;-65
2022/09/28 00:21:22;;;;;;;15.68;8.18;;;8.40;1.00;;;;;;4993087;28;20134;-65
2022/09/28 00:26:35;;;;;;;12.45;8.52;;;8.30;99.90;;;;;;4977612;28;20038;-83
2022/09/28 00:29:01;;;;;;;13.68;8.57;;;8.90;99.90;;;;;;4991522;28;20088;-83
2022/09/28 00:31:31;;;;;;;15.48;8.40;;;8.40;99.90;;;;;;4992951;28;20282;-83
2022/09/28 00:33:59;;;;;;;13.93;8.02;;;8.20;1.00;;;;;;4976406;28;20042;-82
2022/09/28 00:36:27;;;;;;;16.30;8.25;;;8.70;99.90;;;;;;4985751;28;20041;-83
2022/09/28 00:38:55;;;;;;;13.77;8.48;;;8.50;99.90;;;;;;4992158;28;20038;-83
2022/09/28 00:41:24;;;;;;;14.88;9.10;;;8.00;99.90;;;;;;5005135;28;20038;-82
2022/09/28 00:43:51;;;;;;;15.25;8.43;;;8.30;99.90;;;;;;4991192;28;20113;-83
2022/09/28 00:46:32;;;;;;;16.27;9.35;;;8.70;99.90;;;;;;4990004;28;20034;-82
2022/09/28 00:49:02;;;;;;;15.00;8.80;;;8.50;1.00;;;;;;4992570;28;20038;-83
2022/09/28 00:51:30;;;;;;;17.83;8.43;;;8.60;1.00;;;;;;4991080;28;20081;-82
2022/09/28 00:53:56;;;;;;;14.73;8.88;;;9.10;1.00;;;;;;4987822;28;20038;-82
2022/09/28 00:56:26;;;;;;;15.60;9.35;;;8.60;1.00;;;;;;5008046;28;20042;-83
2022/09/28 00:58:53;;;;;;;15.55;8.90;;;8.60;99.90;;;;;;4987839;28;20122;-82
2022/09/28 01:01:19;;;;;;;15.25;9.00;;;8.70;1.00;;;;;;4991944;28;20451;-82
2022/09/28 01:03:47;;;;;;;15.00;9.38;;;8.50;1.00;;;;;;4989028;28;20042;-83
2022/09/28 01:06:21;;;;;;;14.80;8.90;;;8.60;1.00;;;;;;4993995;28;20045;-82
2022/09/28 01:08:50;;;;;;;16.77;9.65;;;8.60;1.00;;;;;;5003659;28;20053;-83
2022/09/28 01:11:17;;;;;;;13.90;8.02;;;8.20;1.00;;;;;;4972640;28;20463;-83
2022/09/28 01:13:45;;;;;;;13.15;8.90;;;9.40;1.00;;;;;;4990136;28;20046;-83
2022/09/28 01:16:40;;;;;;;15.68;8.98;;;8.50;1.00;;;;;;4985454;28;20050;-83
2022/09/28 01:19:25;;;;;;;13.32;7.82;;;8.40;1.00;;;;;;4982316;28;20046;-83
2022/09/28 01:21:53;;;;;;;18.35;9.00;;;8.20;1.00;;;;;;4990073;28;20042;-83
2022/09/28 01:24:25;;;;;;;16.40;8.60;;;8.60;1.00;;;;;;4988003;28;20034;-82
2022/09/28 01:27:14;;;;;;;14.90;8.60;;;8.60;1.00;;;;;;4993065;28;20046;-83
2022/09/28 01:30:04;;;;;;;15.50;7.68;;;8.20;1.00;;;;;;4991844;28;20039;-82
2022/09/28 01:32:35;;;;;;;14.77;7.78;;;8.20;1.00;;;;;;4985556;28;20203;-83
2022/09/28 01:35:10;;;;;;;15.05;8.15;;;7.90;1.00;;;;;;4988081;28;20043;-83
2022/09/28 01:37:51;;;;;;;18.42;9.20;;;8.40;1.00;;;;;;4992129;28;20046;-83
2022/09/28 01:40:20;;;;;;;13.52;8.48;;;8.30;1.00;;;;;;4970260;28;20047;-83
2022/09/28 01:42:49;;;;;;;15.45;8.82;;;8.30;1.00;;;;;;4994078;28;20291;-83
2022/09/28 01:45:24;;;;;;;14.07;7.85;;;8.40;99.90;;;;;;4979250;28;20039;-83
2022/09/28 01:47:52;;;;;;;15.32;8.50;;;8.30;1.00;;;;;;5000244;28;20018;-82
2022/09/28 01:50:21;;;;;;;17.85;9.30;;;8.60;1.00;;;;;;4991707;28;20039;-83
2022/09/28 01:52:55;;;;;;;13.32;8.05;;;8.30;1.00;;;;;;4989531;28;20046;-83
2022/09/28 01:55:30;;;;;;;13.77;7.30;;;8.20;1.00;;;;;;4993382;28;20039;-83
2022/09/28 01:58:14;;;;;;;14.10;8.52;;;8.50;1.00;;;;;;4982746;28;20038;-83
2022/09/28 02:00:45;;;;;;;15.40;8.27;;;7.90;1.00;;;;;;4992512;28;20045;-83
2022/09/28 02:03:16;;;;;;;13.13;7.13;;;7.80;1.00;;;;;;5007174;28;20034;-83
2022/09/28 02:05:53;;;;;;;14.30;8.02;;;8.30;1.00;;;;;;4993984;28;20034;-83
2022/09/28 02:08:27;;;;;;;12.68;7.47;;;8.50;1.00;;;;;;4990626;28;20049;-83
2022/09/28 02:11:10;;;;;;;15.70;8.63;;;7.60;1.00;;;;;;4988260;28;20077;-83
2022/09/28 02:13:39;;;;;;;13.40;7.05;;;8.00;1.00;;;;;;4992863;28;20046;-83
2022/09/28 02:16:11;;;;;;;11.98;7.70;;;7.70;1.00;;;;;;4963258;28;20030;-83
2022/09/28 02:18:36;;;;;;;16.13;8.55;;;7.80;1.00;;;;;;4986659;28;20074;-83
2022/09/28 02:21:11;;;;;;;15.88;8.60;;;7.80;1.00;;;;;;4993101;28;20041;-83
2022/09/28 02:23:38;;;;;;;;;;;7.60;1.00;;;;;;4987768;28;20051;-83
2022/09/28 02:26:09;;;;;;;18.90;8.77;;;7.60;1.00;;;;;;4993553;28;19925;-83
2022/09/28 02:28:35;;;;;;;15.00;9.30;;;7.80;1.00;;;;;;4970103;28;20043;-84
2022/09/28 02:31:00;;;;;;;15.40;8.25;;;8.50;1.00;;;;;;5011161;28;20106;-83
2022/09/28 02:33:37;;;;;;;17.48;9.45;;;7.60;1.00;;;;;;5003500;28;20500;-83
2022/09/28 02:36:03;;;;;;;16.17;8.40;;;8.00;1.00;;;;;;4956581;28;20411;-83
2022/09/28 02:38:30;;;;;;;16.83;9.02;;;;;;;;;;4987749;28;20076;-83
2022/09/28 02:41:03;;;;;;;15.45;9.07;;;;;;;;;;4988277;28;20489;-83
2022/09/28 02:43:34;;;;;;;14.55;8.60;;;8.00;1.00;;;;;;4986814;28;20039;-83
2022/09/28 02:46:19;;;;;;;17.08;8.20;;;7.80;1.00;;;;;;4990087;28;20038;-83
2022/09/28 02:48:50;;;;;;;19.52;9.68;;;7.90;1.00;;;;;;4991664;28;20052;-83
2022/09/28 02:51:49;;;;;;;19.23;9.70;;;8.30;1.00;;;;;;4982872;28;20042;-83
2022/09/28 02:54:37;;;;;;;15.85;8.88;;;7.80;1.00;;;;;;4986150;28;20046;-83
2022/09/28 02:57:13;;;;;;;16.63;9.13;;;8.00;1.00;;;;;;4988809;28;20038;-83
2022/09/28 02:59:44;;;;;;;13.35;7.30;;;7.60;1.00;;;;;;4986296;28;20512;-83
2022/09/28 03:02:31;;;;;;;16.17;8.13;;;8.20;1.00;;;;;;5006456;28;20161;-83
2022/09/28 03:05:12;;;;;;;16.45;7.47;;;8.10;1.00;;;;;;4977070;28;20534;-83
2022/09/28 03:07:53;;;;;;;10.95;6.45;;;8.10;1.00;;;;;;4990407;28;20100;-82
2022/09/28 03:10:32;;;;;;;12.38;7.35;;;7.90;1.00;;;;;;4999786;28;20049;-83
2022/09/28 03:12:58;;;;;;;11.75;6.40;;;8.30;1.00;;;;;;4961910;28;20125;-83
2022/09/28 03:15:26;;;;;;;11.90;6.53;;;8.30;1.00;;;;;;4984406;28;20492;-82
2022/09/28 03:18:01;;;;;;;12.65;7.43;;;8.30;1.00;;;;;;4991222;28;20104;-82
2022/09/28 03:20:29;;;;;;;14.80;6.72;;;7.80;1.00;;;;;;4975012;28;20181;-82
2022/09/28 03:22:55;;;;;;;12.77;7.22;;;8.60;1.00;;;;;;4978997;28;20067;-81
2022/09/28 03:25:20;;;;;;;14.93;6.40;;;8.30;1.00;;;;;;4982054;28;20039;-82
2022/09/28 03:27:46;;;;;;;11.02;6.68;;;7.80;1.00;;;;;;4989284;28;20038;-82
2022/09/28 03:30:12;;;;;;;13.55;7.28;;;8.40;1.00;;;;;;4995944;28;20487;-81
2022/09/28 03:32:39;;;;;;;15.40;7.40;;;7.80;1.00;;;;;;4991656;28;20039;-81
2022/09/28 03:35:05;;;;;;;15.32;7.82;;;7.80;1.00;;;;;;5008429;28;20029;-81
2022/09/28 03:37:31;;;;;;;16.45;8.10;;;8.30;1.00;;;;;;4979588;28;20416;-81
2022/09/28 03:39:56;;;;;;;14.65;8.40;;;8.10;1.00;;;;;;4990025;28;20034;-81
2022/09/28 03:42:22;;;;;;;17.35;9.38;;;8.60;1.00;;;;;;4989200;28;20144;-82
2022/09/28 03:44:48;;;;;;;17.45;10.00;;;8.40;1.00;;;;;;4991456;28;20042;-82
2022/09/28 03:47:14;;;;;;;15.15;8.30;;;8.60;1.00;;;;;;4989249;28;20073;-81
2022/09/28 03:49:40;;;;;;;15.43;8.40;;;8.30;1.00;;;;;;4980600;28;20519;-81
2022/09/28 03:52:06;;;;;;;14.30;7.90;;;8.00;1.00;;;;;;4988318;28;20030;-81
2022/09/28 03:54:31;;;;;;;13.48;7.47;;;8.40;1.00;;;;;;4996901;28;20444;-80
2022/09/28 03:56:57;;;;;;;16.23;8.30;;;8.10;1.00;;;;;;4989467;28;20038;-81
2022/09/28 03:59:23;;;;;;;13.32;6.50;;;8.30;1.00;;;;;;4985856;28;20199;-81
2022/09/28 04:01:49;;;;;;;12.50;6.45;;;7.90;1.00;;;;;;4989801;28;20117;-81
2022/09/28 04:04:15;;;;;;;11.93;7.15;;;8.40;1.00;;;;;;4987640;28;20400;-81
2022/09/28 04:06:41;;;;;;;16.73;9.32;;;7.70;1.00;;;;;;4989275;28;20039;-80
2022/09/28 04:09:07;;;;;;;11.82;6.65;;;8.00;1.00;;;;;;5004076;28;20396;-81
2022/09/28 04:11:33;;;;;;;16.95;8.48;;;7.90;1.00;;;;;;4990243;28;20034;-81
2022/09/28 04:13:58;;;;;;;17.15;9.68;;;8.20;1.00;;;;;;4988894;28;20079;-81
2022/09/28 04:16:24;;;;;;;18.27;9.85;;;8.20;1.00;;;;;;4992138;28;20299;-81
2022/09/28 04:18:50;;;;;;;13.93;7.97;;;7.80;1.00;;;;;;4990422;28;20037;-81
2022/09/28 04:21:21;;;;;;;14.45;7.82;;;7.80;1.00;;;;;;4986620;28;20027;-81
2022/09/28 04:23:47;;;;;;;9.50;5.78;;;8.30;1.00;;;;;;4973515;28;20042;-81
2022/09/28 04:26:22;;;;;;;11.40;6.40;;;7.80;1.00;;;;;;4997530;28;20039;-81
2022/09/28 04:31:54;;;;;;;10.75;5.55;;;;;;;;;;4932083;29;20192;-81
2022/09/28 04:34:22;;;;;;;12.13;5.18;;;8.80;1.00;;;;;;4929624;29;20050;-81
2022/09/28 04:36:48;;;;;;;9.82;5.75;;;8.30;1.00;;;;;;4927034;28;21229;-81
2022/09/28 04:39:16;;;;;;;10.48;5.95;;;8.00;1.00;;;;;;4985204;28;20034;-82
2022/09/28 04:41:42;;;;;;;10.48;5.28;;;8.40;1.00;;;;;;4966313;28;20117;-81
2022/09/28 04:44:08;;;;;;;13.88;6.03;;;8.60;1.00;;;;;;4984661;28;20555;-81
2022/09/28 04:46:34;;;;;;;9.40;5.65;;;8.60;1.00;;;;;;4984523;28;20031;-82
2022/09/28 04:49:01;;;;;;;9.07;4.97;;;8.40;1.00;;;;;;4975542;28;20042;-82
2022/09/28 04:51:29;;;;;;;11.02;5.75;;;8.50;1.00;;;;;;4979739;28;20039;-82
2022/09/28 04:53:55;;;;;;;10.38;4.97;;;8.70;1.00;;;;;;4976154;28;21010;-82
2022/09/28 04:56:21;;;;;;;9.73;5.07;;;8.50;1.00;;;;;;4975661;28;20050;-81
2022/09/28 04:58:46;;;;;;;9.38;4.60;;;7.90;1.00;;;;;;4971625;28;20054;-82
2022/09/28 05:01:16;;;;;;;9.75;5.10;;;8.00;1.00;;;;;;4979014;28;20378;-81
2022/09/28 05:03:42;;;;;;;10.68;5.22;;;8.10;1.00;;;;;;4984861;28;20118;-82
2022/09/28 05:06:09;;;;;;;10.15;5.20;;;7.80;1.00;;;;;;4981963;28;20062;-82
2022/09/28 05:08:34;;;;;;;10.70;5.25;;;8.50;1.00;;;;;;4979260;28;20047;-82
2022/09/28 05:11:05;;;;;;;9.18;5.53;;;8.60;1.00;;;;;;4977885;28;20042;-82
2022/09/28 05:13:39;;;;;;;11.20;5.72;;;8.00;1.00;;;;;;4973234;28;20088;-82
2022/09/28 05:16:05;;;;;;;11.82;5.43;;;8.10;1.00;;;;;;4956724;28;20515;-79
2022/09/28 05:18:30;;;;;;;10.25;5.50;;;7.90;1.00;;;;;;4974566;28;20038;-82
2022/09/28 05:20:56;;;;;;;11.10;5.93;;;7.70;10.80;;;;;;4974088;28;20027;-81
2022/09/28 05:23:22;;;;;;;11.43;6.25;;;7.80;38.50;;;;;;4973846;28;20492;-81
2022/09/28 05:25:47;;;;;;;11.90;5.40;;;7.60;1.00;;;;;;4980364;28;20058;-81
2022/09/28 05:28:13;;;;;;;13.35;6.45;;;8.80;5.60;;;;;;4973063;28;20042;-81
2022/09/28 05:30:39;;;;;;;14.88;6.32;;;8.10;15.80;;;;;;4984866;28;20030;-81
2022/09/28 05:33:05;;;;;;;8.43;5.53;;;;;;;;;;4974960;28;20481;-81
2022/09/28 05:35:31;;;;;;;10.27;5.90;;;7.50;18.20;;;;;;4959357;28;20488;-81
2022/09/28 05:38:02;;;;;;;10.43;6.43;;;8.20;27.80;;;;;;4978018;28;20042;-81
2022/09/28 05:40:28;;;;;;;13.88;7.30;;;7.50;31.00;;;;;;4968608;28;20042;-81
2022/09/28 05:42:58;;;;;;;13.65;7.05;;;8.00;33.30;;;;;;4989816;28;20041;-82
2022/09/28 05:45:24;;;;;;;12.65;6.50;;;7.70;48.50;;;;;;4977274;28;20035;-81
2022/09/28 05:47:49;;;;;;;11.23;6.97;;;8.20;44.90;;;;;;4992282;28;20093;-81
2022/09/28 05:50:15;;;;;;;14.25;6.45;;;7.40;25.70;;;;;;4997524;28;20074;-81
2022/09/28 05:52:42;;;;;;;11.90;6.78;;;7.30;61.00;;;;;;4986748;28;20074;-81
2022/09/28 05:55:08;;;;;;;16.17;6.45;;;7.80;59.60;;;;;;4993970;28;20056;-81
2022/09/28 05:57:33;;;;;;;11.65;5.93;;;7.60;49.10;;;;;;4967360;28;20038;-81
2022/09/28 05:59:59;;;;;;;11.32;5.65;;;7.60;59.40;;;;;;4989201;28;20030;-81
2022/09/28 06:02:25;;;;;;;13.82;6.88;;;7.30;69.40;;;;;;4985139;28;20038;-81
2022/09/28 06:04:51;;;;;;;12.88;7.13;;;7.40;69.30;;;;;;4981390;28;20026;-82
2022/09/28 06:07:17;;;;;;;10.82;6.35;;;7.80;74.80;;;;;;4962019;28;20552;-82
2022/09/28 06:09:42;;;;;;;9.85;6.20;;;7.60;48.20;;;;;;4994467;28;20058;-81
2022/09/28 06:12:08;;;;;;;9.63;6.00;;;7.10;65.30;;;;;;4984934;28;20037;-81
2022/09/28 06:14:34;;;;;;;10.73;6.18;;;7.20;81.00;;;;;;4979191;28;20039;-81
2022/09/28 06:16:59;;;;;;;11.55;6.22;;;7.50;48.80;;;;;;4986563;28;20428;-81
2022/09/28 06:19:25;;;;;;;10.13;6.30;;;7.40;37.10;;;;;;4981164;28;20061;-81
2022/09/28 06:21:51;;;;;;;10.85;6.50;;;7.50;74.40;;;;;;4961301;28;20240;-81
2022/09/28 06:24:16;;;;;;;11.65;6.00;;;7.30;81.60;;;;;;4985345;28;20039;-81
2022/09/28 06:26:42;;;;;;;13.52;6.63;;;7.30;99.90;;;;;;5042937;22;20129;-68
2022/09/28 06:29:08;;;;;;;11.27;6.60;;;7.20;99.90;;;;;;5010156;28;20041;-68
2022/09/28 06:31:33;;;;;;;11.18;6.45;;;7.60;99.90;;;;;;5009405;28;20129;-68
2022/09/28 06:34:00;;;;;;;9.32;6.53;;;7.50;99.90;;;;;;5009442;28;20120;-68
2022/09/28 06:36:30;;;;;;;12.07;7.30;;;7.50;99.90;;;;;;5010477;28;20065;-68
2022/09/28 06:38:55;;;;;;;13.38;7.35;;;7.90;99.90;;;;;;5007563;28;20469;-68
2022/09/28 06:41:21;;;;;;;11.52;6.90;;;;;;;;;;5005780;28;20045;-68
2022/09/28 06:43:47;;;;;;;11.43;6.40;;;7.10;99.90;;;;;;5010047;28;20034;-68
2022/09/28 06:46:13;;;;;;;13.32;7.35;;;6.70;99.90;;;;;;5004586;28;20049;-68
2022/09/28 06:48:39;;;;;;;14.48;7.82;;;7.70;99.90;;;;;;5008133;28;20045;-69
2022/09/28 06:51:06;;;;;;;10.20;6.43;;;7.20;99.90;;;;;;5000651;28;20127;-69
2022/09/28 06:53:32;;;;;;;11.43;7.55;;;7.80;99.90;;;;;;5006379;28;20042;-69
2022/09/28 06:55:59;;;;;;;11.23;6.15;;;7.30;99.90;;;;;;5005903;28;20038;-68
2022/09/28 06:58:27;;;;;;;10.85;6.30;;;7.40;99.90;;;;;;5004557;28;20088;-69
2022/09/28 07:00:58;;;;;;;11.65;6.57;;;7.20;99.90;;;;;;5010491;28;20111;-69
2022/09/28 07:03:24;;;;;;;10.60;6.78;;;7.20;99.90;;;;;;5002538;28;20038;-69
2022/09/28 07:05:52;;;;;;;14.20;7.20;;;7.40;99.90;;;;;;4999150;28;20043;-69
2022/09/28 07:08:20;;;;;;;9.50;6.40;;;7.40;99.90;;;;;;4985624;28;20046;-68
2022/09/28 07:10:48;;;;;;;9.63;6.05;;;7.30;99.90;;;;;;4996575;28;20038;-68
2022/09/28 07:13:15;;;;;;;11.55;7.15;;;7.50;99.90;;;;;;5002074;28;20069;-69
2022/09/28 07:15:42;;;;;;;9.55;6.10;;;7.70;99.90;;;;;;4997726;28;20492;-69
2022/09/28 07:18:09;;;;;;;11.60;6.70;;;7.80;99.90;;;;;;5002012;28;20066;-69
2022/09/28 07:20:36;;;;;;;11.35;7.13;;;7.50;99.90;;;;;;5004257;28;20053;-69
2022/09/28 07:23:05;;;;;;;12.68;6.68;;;8.10;99.90;;;;;;4998124;28;20068;-69
2022/09/28 07:25:31;;;;;;;10.20;6.22;;;7.60;99.90;;;;;;5009729;28;20049;-69
2022/09/28 07:28:01;;;;;;;8.27;5.88;;;7.50;99.90;;;;;;5000569;28;20062;-69
2022/09/28 07:30:31;;;;;;;11.77;7.03;;;7.50;99.90;;;;;;5000909;28;20037;-69
2022/09/28 07:32:58;;;;;;;13.35;7.75;;;7.50;99.90;;;;;;5011738;28;20088;-69
2022/09/28 07:35:24;;;;;;;11.90;7.00;;;8.20;99.90;;;;;;5005622;28;20045;-69
2022/09/28 07:38:00;;;;;;;12.40;7.57;;;7.70;99.90;;;;;;5005318;28;20500;-69
2022/09/28 07:43:12;;;;;;;;;;;8.10;99.90;;;;;;4997544;28;20042;-69
2022/09/28 07:45:38;;;;;;;9.85;6.53;;;7.80;99.90;;;;;;5008585;28;19960;-68
2022/09/28 07:48:04;;;;;;;9.82;6.32;;;9.10;99.90;;;;;;5002837;28;20049;-69
2022/09/28 07:50:30;;;;;;;10.90;6.68;;;7.60;99.90;;;;;;4999363;28;20048;-69
2022/09/28 07:52:56;;;;;;;9.05;5.93;;;7.70;99.90;;;;;;5009446;28;20056;-69
2022/09/28 07:55:22;;;;;;;8.40;5.70;;;8.70;99.90;;;;;;5009952;28;20057;-70
2022/09/28 07:57:54;;;;;;;11.23;6.10;;;7.80;99.90;;;;;;4984900;28;20042;-69
2022/09/28 08:00:20;;;;;;;9.68;6.15;;;8.80;99.90;;;;;;5001361;28;20500;-69
2022/09/28 08:02:47;;;;;;;14.95;8.60;;;8.40;99.90;;;;;;5012067;28;20038;-69
2022/09/28 08:05:12;;;;;;;11.25;5.30;;;8.90;99.90;;;;;;5008975;28;20403;-69
2022/09/28 08:07:38;;;;;;;9.85;5.50;;;8.60;99.90;;;;;;4991185;28;20041;-69
2022/09/28 08:10:04;;;;;;;10.07;4.60;;;9.20;99.90;;;;;;5002654;28;20045;-69
2022/09/28 08:12:30;;;;;;;7.75;4.85;;;8.50;99.90;;;;;;4998072;28;20052;-69
2022/09/28 08:14:57;;;;;;;8.07;3.88;;;9.10;99.90;;;;;;4999494;28;20452;-69
2022/09/28 08:17:23;;;;;;;6.28;2.47;;;9.00;99.90;;;;;;5008442;28;20104;-69
2022/09/28 08:22:33;;;;;;;7.63;2.30;;;9.60;99.90;;;;;;5006959;28;20039;-69
2022/09/28 08:24:58;;;;;;;7.13;2.55;;;9.30;99.90;;;;;;5009782;28;20404;-69
2022/09/28 08:27:24;;;;;;;7.10;2.35;;;9.30;99.90;;;;;;5001594;28;20472;-69
2022/09/28 08:29:50;;;;;;;16.05;2.00;;;9.20;99.90;;;;;;4999728;28;20515;-69
2022/09/28 08:32:17;;;;;;;6.18;1.73;;;9.10;99.90;;;;;;5011933;28;20488;-69
2022/09/28 08:34:43;;;;;;;9.43;1.55;;;9.20;99.90;;;;;;5011199;28;20042;-69
2022/09/28 08:37:09;;;;;;;6.10;1.50;;;;;;;;;;4991881;28;20057;-69
2022/09/28 08:39:36;;;;;;;5.03;1.50;;;;;;;;;;4991440;28;20046;-69
2022/09/28 08:42:23;;;;;;;5.75;1.25;;;9.90;99.90;;;;;;5010392;28;20065;-69
2022/09/28 08:44:56;;;;;;;6.53;1.48;;;10.00;99.90;;;;;;5010673;28;20518;-69
2022/09/28 08:50:28;;;;;;;5.03;1.20;;;10.80;99.90;;;;;;5009785;28;20074;-69
2022/09/28 08:53:02;;;;;;;4.43;1.17;;;10.30;99.90;;;;;;4990809;28;20491;-69
2022/09/28 08:55:36;;;;;;;4.22;1.10;;;10.30;99.90;;;;;;5012204;28;20120;-69
2022/09/28 08:58:14;;;;;;;5.35;1.52;;;9.90;81.90;;;;;;4999851;28;20037;-69
2022/09/28 09:00:49;;;;;;;3.75;1.00;;;10.00;81.50;;;;;;5002455;28;20527;-69
2022/09/28 09:03:19;;;;;;;6.18;1.10;;;;;;;;;;4998612;28;20033;-69
2022/09/28 09:05:57;;;;;;;3.80;1.02;;;9.70;98.90;;;;;;4995480;28;20045;-69
2022/09/28 09:08:59;;;;;;;2.63;0.93;;;10.50;94.40;;;;;;4998143;28;20065;-68
2022/09/28 09:11:53;;;;;;;4.00;0.88;;;10.80;27.50;;;;;;4943228;28;20046;-68
2022/09/28 09:14:56;;;;;;;4.82;1.17;;;10.70;1.00;;;;;;5000644;28;20512;-68
2022/09/28 09:17:37;;;;;;;2.83;0.70;;;10.50;1.00;;;;;;4993988;28;20634;-68
2022/09/28 09:20:40;;;;;;;3.15;0.80;;;10.60;1.00;;;;;;5000474;28;20038;-68
2022/09/28 09:23:23;;;;;;;3.28;1.45;;;10.40;99.90;;;;;;4995822;28;20038;-68
2022/09/28 09:25:53;;;;;;;3.78;0.70;;;10.80;1.00;;;;;;4998503;28;20038;-68
2022/09/28 09:28:31;;;;;;;4.10;0.82;;;10.90;1.00;;;;;;4995025;28;20459;-68
2022/09/28 09:31:07;;;;;;;3.00;0.70;;;11.00;99.90;;;;;;5005326;28;20224;-68
2022/09/28 09:33:56;;;;;;;1.63;0.77;;;11.00;99.90;;;;;;5008430;28;20046;-68
2022/09/28 09:36:56;;;;;;;2.35;0.70;;;11.30;99.90;;;;;;4988350;28;20058;-68
2022/09/28 09:39:54;;;;;;;3.08;1.10;;;10.50;99.90;;;;;;4993722;28;20073;-68
2022/09/28 09:42:42;;;;;;;2.63;0.60;;;11.00;99.90;;;;;;4999428;28;20079;-68
2022/09/28 09:45:33;;;;;;;2.05;0.60;;;11.60;99.90;;;;;;4994006;28;20030;-68
2022/09/28 09:48:03;;;;;;;2.65;0.70;;;11.00;99.90;;;;;;4999659;28;20034;-68
2022/09/28 09:50:34;;;;;;;1.63;0.60;;;10.70;99.90;;;;;;5003254;28;20519;-68
2022/09/28 09:53:04;;;;;;;1.17;0.60;;;;;;;;;;5002813;28;20037;-67
2022/09/28 09:55:42;;;;;;;2.15;0.63;;;11.00;1.00;;;;;;4995561;28;20040;-68
2022/09/28 09:58:16;;;;;;;1.70;0.60;;;11.40;99.90;;;;;;5001555;28;20042;-68
2022/09/28 10:00:44;;;;;;;1.27;0.68;;;11.80;99.90;;;;;;4998719;28;20396;-68
2022/09/28 10:03:24;;;;;;;1.73;0.70;;;11.70;1.00;;;;;;4997115;28;20116;-68
2022/09/28 10:06:05;;;;;;;2.03;0.70;;;11.20;99.90;;;;;;4999863;28;20046;-68
2022/09/28 10:08:40;;;;;;;2.60;0.80;;;11.20;99.90;;;;;;5005996;28;20050;-68
2022/09/28 10:11:18;;;;;;;;;;;11.90;99.90;;;;;;4999377;28;20112;-68
2022/09/28 10:13:48;;;;;;;2.78;1.08;;;11.40;99.90;;;;;;4995407;28;19924;-68
2022/09/28 10:16:18;;;;;;;2.13;0.63;;;11.00;99.90;;;;;;4990859;28;20038;-68
2022/09/28 10:18:43;;;;;;;2.90;0.80;;;11.10;1.00;;;;;;5003076;28;20045;-68
2022/09/28 10:21:13;;;;;;;2.95;0.85;;;;;;;;;;5007344;28;20276;-68
2022/09/28 10:23:40;;;;;;;2.05;0.70;;;12.00;1.00;;;;;;4982352;28;20042;-67
2022/09/28 10:26:09;;;;;;;2.47;0.68;;;;;;;;;;5006218;28;20065;-68
2022/09/28 10:28:46;;;;;;;1.70;0.70;;;12.30;99.90;;;;;;5003268;28;20049;-68
2022/09/28 10:31:34;;;;;;;1.88;0.70;;;12.50;93.20;;;;;;5002407;28;20416;-67
2022/09/28 10:34:00;;;;;;;2.72;0.68;;;12.40;1.00;;;;;;5000124;28;20043;-68
2022/09/28 10:36:26;;;;;;;3.55;0.63;;;12.70;1.00;;;;;;5002117;28;20049;-67
2022/09/28 10:38:53;;;;;;;1.92;0.80;;;12.50;99.90;;;;;;5001984;28;20121;-67
2022/09/28 10:41:21;;;;;;;2.22;0.63;;;12.30;99.90;;;;;;5007373;28;20123;-68
2022/09/28 10:44:06;;;;;;;1.65;0.60;;;13.00;99.90;;;;;;5006110;28;20131;-67
2022/09/28 10:46:33;;;;;;;2.58;1.02;;;12.40;99.90;;;;;;5006702;28;20041;-67
2022/09/28 10:49:03;;;;;;;1.67;0.60;;;12.80;1.00;;;;;;5008068;28;20042;-67
2022/09/28 10:51:50;;;;;;;1.08;0.50;;;12.80;1.00;;;;;;5008852;28;20053;-67
2022/09/28 10:54:20;;;;;;;1.45;0.60;;;;;;;;;;4996349;28;20041;-67
2022/09/28 10:56:47;;;;;;;1.27;0.50;;;13.00;43.10;;;;;;5005630;28;20384;-67
2022/09/28 10:59:27;;;;;;;1.48;0.60;;;13.30;1.00;;;;;;5006527;28;20041;-67
2022/09/28 11:02:02;;;;;;;2.33;0.80;;;13.60;99.90;;;;;;5007519;28;20041;-67
2022/09/28 11:04:38;;;;;;;2.65;0.82;;;12.80;9.70;;;;;;4997619;28;20403;-67
2022/09/28 11:07:15;;;;;;;1.40;0.80;;;13.30;99.90;;;;;;5002177;28;20459;-67
2022/09/28 11:09:45;;;;;;;2.40;0.82;;;13.00;99.90;;;;;;5004933;28;20561;-67
2022/09/28 11:12:15;;;;;;;2.13;0.70;;;13.40;1.00;;;;;;4984451;28;20046;-67
2022/09/28 11:14:42;;;;;;;1.17;0.60;;;13.60;99.90;;;;;;5003456;28;20046;-67
2022/09/28 11:17:32;;;;;;;2.17;0.70;;;13.80;99.90;;;;;;5007807;28;20038;-67
2022/09/28 11:20:20;;;;;;;2.78;0.60;;;13.70;99.90;;;;;;5004191;28;20499;-67
2022/09/28 11:22:47;;;;;;;1.98;0.68;;;13.70;99.90;;;;;;5009215;28;20080;-67
2022/09/28 11:25:15;;;;;;;2.10;0.70;;;13.80;99.90;;;;;;4999903;28;20065;-68
2022/09/28 11:28:03;;;;;;;2.10;0.60;;;13.90;1.00;;;;;;4995835;28;20049;-67
2022/09/28 11:30:39;;;;;;;2.42;0.60;;;13.50;93.80;;;;;;5007873;28;20053;-68
2022/09/28 11:33:14;;;;;;;2.30;0.70;;;13.60;99.90;;;;;;5008399;28;20052;-68
2022/09/28 11:35:49;;;;;;;1.42;0.63;;;14.00;99.90;;;;;;4999545;28;20054;-67
2022/09/28 11:38:30;;;;;;;2.45;0.70;;;13.90;99.90;;;;;;4991198;28;20037;-67
2022/09/28 11:41:17;;;;;;;2.72;0.60;;;13.20;99.90;;;;;;4997673;28;20037;-68
2022/09/28 11:44:11;;;;;;;2.40;0.80;;;13.80;99.90;;;;;;5009605;28;20037;-67
2022/09/28 11:46:48;;;;;;;2.13;0.47;;;13.40;99.90;;;;;;4957761;28;20049;-68
2022/09/28 11:49:30;;;;;;;1.42;0.57;;;13.40;99.90;;;;;;5008051;28;20044;-68
2022/09/28 11:52:02;;;;;;;1.42;0.50;;;13.30;99.90;;;;;;5001767;28;20034;-67
2022/09/28 11:54:39;;;;;;;1.48;0.55;;;13.10;1.00;;;;;;4999746;28;20045;-67
2022/09/28 11:57:10;;;;;;;1.73;0.60;;;13.50;4.30;;;;;;4990803;28;20050;-68
2022/09/28 11:59:43;;;;;;;1.45;0.68;;;13.10;90.60;;;;;;5010036;28;20030;-67
2022/09/28 12:02:14;;;;;;;2.17;0.60;;;14.10;99.90;;;;;;4998325;28;20041;-67
2022/09/28 12:04:51;;;;;;;1.88;0.52;;;13.70;1.00;;;;;;5001735;28;20076;-67
2022/09/28 12:07:37;;;;;;;1.30;0.60;;;13.60;1.00;;;;;;4979528;28;20066;-67
2022/09/28 12:10:17;;;;;;;1.33;0.60;;;14.30;1.00;;;;;;5005109;28;20041;-67
2022/09/28 12:13:00;;;;;;;1.55;0.60;;;14.20;1.00;;;;;;5007286;28;20042;-68
2022/09/28 12:15:37;;;;;;;1.45;0.50;;;14.50;54.90;;;;;;5007093;28;20053;-67
2022/09/28 12:18:10;;;;;;;1.02;0.70;;;15.00;25.80;;;;;;5011539;28;20172;-67
2022/09/28 12:20:43;;;;;;;1.55;0.60;;;15.30;99.90;;;;;;5012126;28;20034;-67
2022/09/28 12:23:15;;;;;;;3.47;0.63;;;15.80;99.90;;;;;;5011814;28;20420;-67
2022/09/28 12:25:48;;;;;;;0.73;0.50;;;16.80;1.00;;;;;;5058574;22;20046;-79
2022/09/28 12:28:30;;;;;;;2.80;0.73;;;17.40;99.90;;;;;;5033938;28;20037;-78
2022/09/28 12:31:10;;;;;;;1.70;0.68;;;17.80;99.90;;;;;;5002257;28;20517;-77
2022/09/28 12:33:37;;;;;;;0.75;0.50;;;18.50;99.90;;;;;;5017568;28;20395;-77
2022/09/28 12:36:29;;;;;;;2.00;0.80;;;18.60;99.90;;;;;;5002631;28;20069;-77
2022/09/28 12:39:16;;;;;;;1.75;0.60;;;17.70;99.90;;;;;;5014298;28;20502;-77
2022/09/28 12:42:13;;;;;;;1.40;0.60;;;17.90;99.90;;;;;;4998306;28;20487;-78
2022/09/28 12:44:48;;;;;;;1.65;0.60;;;17.40;99.90;;;;;;5026231;28;20081;-77
2022/09/28 12:47:48;;;;;;;2.60;0.80;;;16.90;99.90;;;;;;5029973;28;20275;-77
2022/09/28 12:50:24;;;;;;;2.00;0.70;;;;;;;;;;4973924;28;20099;-77
2022/09/28 12:53:24;;;;;;;3.13;0.70;;;16.40;99.90;;;;;;5006382;28;20076;-78
2022/09/28 12:55:55;;;;;;;2.10;0.75;;;17.30;99.90;;;;;;5006981;28;20034;-77
2022/09/28 12:58:26;;;;;;;1.42;0.57;;;19.80;99.90;;;;;;5025777;28;20046;-78
2022/09/28 13:01:07;;;;;;;3.35;0.60;;;22.20;99.90;;;;;;5013680;28;20099;-78
2022/09/28 13:03:56;;;;;;;0.88;0.50;;;22.40;99.90;;;;;;5015552;28;20037;-78
2022/09/28 13:06:33;;;;;;;1.33;0.60;;;21.00;99.90;;;;;;4984640;28;20064;-77
2022/09/28 13:09:04;;;;;;;3.08;0.70;;;20.40;99.90;;;;;;5024610;28;20120;-78
2022/09/28 13:11:40;;;;;;;2.72;0.70;;;21.80;99.90;;;;;;5032117;28;20033;-77
2022/09/28 13:14:06;;;;;;;1.27;0.65;;;23.40;1.00;;;;;;4998384;28;20072;-78
2022/09/28 13:16:41;;;;;;;0.80;0.60;;;25.50;1.00;;;;;;5014375;28;20098;-78
2022/09/28 13:19:33;;;;;;;1.35;0.60;;;27.60;1.00;;;;;;5014782;28;20037;-78
2022/09/28 13:22:18;;;;;;;1.88;0.70;;;28.20;99.90;;;;;;5007081;28;20052;-79
2022/09/28 13:24:45;;;;;;;3.08;0.60;;;27.00;99.90;;;;;;5032714;28;20122;-78
2022/09/28 13:27:31;;;;;;;2.28;0.60;;;24.70;99.90;;;;;;5005228;28;20515;-78
2022/09/28 13:29:59;;;;;;;0.95;0.60;;;23.70;99.90;;;;;;5005698;28;20037;-78
2022/09/28 13:32:30;;;;;;;1.10;0.50;;;22.20;99.90;;;;;;4983123;28;20109;-78
2022/09/28 13:34:57;;;;;;;1.30;0.60;;;20.90;1.00;;;;;;5003488;28;20045;-78
2022/09/28 13:37:24;;;;;;;2.75;0.70;;;20.00;1.00;;;;;;5019639;28;20047;-77